Time,TemperatureF,DewpointF,PressureIn,WindDirection,WindDirectionDegrees,WindSpeedMPH,WindSpeedGustMPH,Humidity,HourlyPrecipIn,Conditions,Clouds,dailyrainin,SoftwareType,DateUTC
2013-09-07 00:01:00,61.3,59.3,30.05,NNE,17,0.0,0.0,93,0.00,,SKC,0.00,VWS V14.01,2013-09-07 04:01:00,
2013-09-07 00:06:00,61.2,59.2,30.05,NNE,17,0.0,0.0,93,0.00,,SKC,0.00,VWS V14.01,2013-09-07 04:06:00,
2013-09-07 00:11:00,61.1,59.1,30.05,NNE,17,0.0,0.0,93,0.00,,SKC,0.00,VWS V14.01,2013-09-07 04:11:00,
2013-09-07 00:16:00,61.0,59.0,30.05,NNE,17,0.0,0.0,93,0.00,,SKC,0.00,VWS V14.01,2013-09-07 04:16:00,
2013-09-07 00:21:00,60.8,58.5,30.05,NNE,17,0.0,0.0,92,0.00,,SKC,0.00,VWS V14.01,2013-09-07 04:21:00,
2013-09-07 00:26:00,60.7,58.4,30.05,NNE,17,0.0,0.0,92,0.00,,SKC,0.00,VWS V14.01,2013-09-07 04:26:00,
2013-09-07 00:31:00,60.5,58.5,30.05,NNE,17,0.0,0.0,93,0.00,,SKC,0.00,VWS V14.01,2013-09-07 04:31:00,
2013-09-07 00:36:00,60.4,58.4,30.05,NNE,17,0.0,0.0,93,0.00,,SKC,0.00,VWS V14.01,2013-09-07 04:36:00,
2013-09-07 00:41:00,60.2,58.2,30.05,NNE,17,0.0,0.0,93,0.00,,SKC,0.00,VWS V14.01,2013-09-07 04:41:00,
2013-09-07 00:46:00,60.1,58.1,30.05,NNE,17,0.0,0.0,93,0.00,,SKC,0.00,VWS V14.01,2013-09-07 04:46:00,
2013-09-07 00:51:00,60.0,58.0,30.05,NNE,17,0.0,0.0,93,0.00,,SKC,0.00,VWS V14.01,2013-09-07 04:51:00,
2013-09-07 00:56:00,59.8,57.8,30.05,NNE,17,0.0,0.0,93,0.00,,SKC,0.00,VWS V14.01,2013-09-07 04:56:00,
2013-09-07 01:01:00,59.7,57.7,29.43,NNE,17,0.0,0.0,93,0.00,,SKC,0.00,VWS V14.01,2013-09-07 05:01:00,
2013-09-07 01:06:00,59.6,57.6,29.43,NNE,17,0.0,0.0,93,0.00,,SKC,0.00,VWS V14.01,2013-09-07 05:06:00,
2013-09-07 01:11:00,59.6,57.6,29.43,NNE,17,0.0,0.0,93,0.00,,SKC,0.00,VWS V14.01,2013-09-07 05:11:00,
2013-09-07 01:16:00,59.6,57.6,29.43,NNE,17,0.0,0.0,93,0.00,,SKC,0.00,VWS V14.01,2013-09-07 05:16:00,
2013-09-07 01:21:00,59.5,57.5,29.43,NNE,17,0.0,0.0,93,0.00,,SKC,0.00,VWS V14.01,2013-09-07 05:21:00,
2013-09-07 01:26:00,59.5,57.8,29.43,NNE,17,0.0,0.0,94,0.00,,SKC,0.00,VWS V14.01,2013-09-07 05:26:00,
2013-09-07 01:31:00,59.3,57.6,29.43,NNE,17,0.0,0.0,94,0.00,,SKC,0.00,VWS V14.01,2013-09-07 05:31:00,
2013-09-07 01:36:00,59.2,57.5,29.43,NNE,17,0.0,0.0,94,0.00,,SKC,0.00,VWS V14.01,2013-09-07 05:36:00,
2013-09-07 01:41:00,59.0,57.0,29.43,NNE,17,0.0,0.0,93,0.00,,SKC,0.00,VWS V14.01,2013-09-07 05:41:00,
2013-09-07 01:46:00,59.0,57.0,29.43,NNE,17,0.0,0.0,93,0.00,,SKC,0.00,VWS V14.01,2013-09-07 05:46:00,
2013-09-07 01:51:00,59.0,57.0,29.43,NNE,17,0.0,0.0,93,0.00,,SKC,0.00,VWS V14.01,2013-09-07 05:51:00,
2013-09-07 01:56:00,58.9,56.9,29.43,NNE,17,0.0,0.0,93,0.00,,SKC,0.00,VWS V14.01,2013-09-07 05:56:00,
2013-09-07 02:01:00,58.9,57.2,29.43,NNE,17,0.0,0.0,94,0.00,,SKC,0.00,VWS V14.01,2013-09-07 06:01:00,
2013-09-07 02:06:00,58.8,57.1,29.43,NNE,17,0.0,0.0,94,0.00,,SKC,0.00,VWS V14.01,2013-09-07 06:06:00,
2013-09-07 02:11:00,58.7,57.0,29.43,NNE,17,0.0,0.0,94,0.00,,SKC,0.00,VWS V14.01,2013-09-07 06:11:00,
2013-09-07 02:16:00,58.5,56.8,29.43,NNE,17,0.0,0.0,94,0.00,,SKC,0.00,VWS V14.01,2013-09-07 06:16:00,
2013-09-07 02:21:00,58.3,56.6,29.43,NNE,17,0.0,0.0,94,0.00,,SKC,0.00,VWS V14.01,2013-09-07 06:21:00,
2013-09-07 02:26:00,58.2,56.5,29.43,NNE,17,0.0,0.0,94,0.00,,SKC,0.00,VWS V14.01,2013-09-07 06:26:00,
2013-09-07 02:31:00,58.1,56.4,29.43,NNE,17,0.0,0.0,94,0.00,,SKC,0.00,VWS V14.01,2013-09-07 06:31:00,
2013-09-07 02:36:00,58.0,56.3,29.43,NNE,17,0.0,0.0,94,0.00,,SKC,0.00,VWS V14.01,2013-09-07 06:36:00,
2013-09-07 02:41:00,58.0,56.3,29.43,NNE,17,0.0,0.0,94,0.00,,SKC,0.00,VWS V14.01,2013-09-07 06:41:00,
2013-09-07 02:46:00,58.0,56.3,29.43,NNE,17,0.0,0.0,94,0.00,,SKC,0.00,VWS V14.01,2013-09-07 06:46:00,
2013-09-07 02:51:00,58.0,56.3,29.43,NNE,17,0.0,0.0,94,0.00,,SKC,0.00,VWS V14.01,2013-09-07 06:51:00,
2013-09-07 02:56:00,58.0,56.3,29.43,NNE,17,0.0,0.0,94,0.00,,SKC,0.00,VWS V14.01,2013-09-07 06:56:00,
2013-09-07 03:01:00,58.1,56.4,29.43,NNE,17,0.0,0.0,94,0.00,,SKC,0.00,VWS V14.01,2013-09-07 07:01:00,
2013-09-07 03:06:00,58.0,56.3,29.43,NNE,17,0.0,0.0,94,0.00,,SKC,0.00,VWS V14.01,2013-09-07 07:06:00,
2013-09-07 03:11:00,57.9,56.2,29.43,NNE,17,0.0,0.0,94,0.00,,SKC,0.00,VWS V14.01,2013-09-07 07:11:00,
2013-09-07 03:16:00,58.0,56.3,29.43,NNE,17,0.0,0.0,94,0.00,,SKC,0.00,VWS V14.01,2013-09-07 07:16:00,
2013-09-07 03:21:00,58.1,56.4,29.43,NNE,17,0.0,0.0,94,0.00,,SKC,0.00,VWS V14.01,2013-09-07 07:21:00,
2013-09-07 03:26:00,58.0,56.3,29.43,NNE,17,0.0,0.0,94,0.00,,SKC,0.00,VWS V14.01,2013-09-07 07:26:00,
2013-09-07 03:31:00,57.9,56.2,29.43,NNE,17,0.0,0.0,94,0.00,,SKC,0.00,VWS V14.01,2013-09-07 07:31:00,
2013-09-07 03:36:00,57.8,56.1,29.43,NNE,17,0.0,0.0,94,0.00,,SKC,0.00,VWS V14.01,2013-09-07 07:36:00,
2013-09-07 03:41:00,57.7,56.0,29.43,NNE,17,0.0,0.0,94,0.00,,SKC,0.00,VWS V14.01,2013-09-07 07:41:00,
2013-09-07 03:46:00,57.5,55.8,29.43,NNE,17,0.0,0.0,94,0.00,,SKC,0.00,VWS V14.01,2013-09-07 07:46:00,
2013-09-07 03:51:00,57.3,55.6,29.43,NNE,17,0.0,0.0,94,0.00,,SKC,0.00,VWS V14.01,2013-09-07 07:51:00,
2013-09-07 03:56:00,57.2,55.5,29.43,NNE,17,0.0,0.0,94,0.00,,SKC,0.00,VWS V14.01,2013-09-07 07:56:00,
2013-09-07 04:01:00,57.2,55.5,29.43,NNE,17,0.0,0.0,94,0.00,,SKC,0.00,VWS V14.01,2013-09-07 08:01:00,
2013-09-07 04:06:00,57.1,55.4,29.43,NNE,17,0.0,0.0,94,0.00,,SKC,0.00,VWS V14.01,2013-09-07 08:06:00,
2013-09-07 04:11:00,56.9,55.2,29.43,NNE,17,0.0,0.0,94,0.00,,SKC,0.00,VWS V14.01,2013-09-07 08:11:00,
2013-09-07 04:16:00,56.7,55.0,29.43,NNE,17,0.0,0.0,94,0.00,,SKC,0.00,VWS V14.01,2013-09-07 08:16:00,
2013-09-07 04:21:00,56.7,55.0,29.43,NNE,17,0.0,0.0,94,0.00,,SKC,0.00,VWS V14.01,2013-09-07 08:21:00,
2013-09-07 04:26:00,56.6,54.9,29.43,NNE,17,0.0,0.0,94,0.00,,SKC,0.00,VWS V14.01,2013-09-07 08:26:00,
2013-09-07 04:30:00,56.6,54.9,29.43,NNE,17,0.0,0.0,94,0.00,,SKC,0.00,VWS V14.01,2013-09-07 08:30:00,
2013-09-07 04:35:00,56.7,55.0,29.43,NNE,17,0.0,0.0,94,0.00,,SKC,0.00,VWS V14.01,2013-09-07 08:35:00,
2013-09-07 04:40:00,56.8,55.1,29.43,NNE,17,0.0,0.0,94,0.00,,SKC,0.00,VWS V14.01,2013-09-07 08:40:00,
2013-09-07 04:45:00,56.9,55.5,29.43,NNE,17,0.0,0.0,95,0.00,,SKC,0.00,VWS V14.01,2013-09-07 08:45:00,
2013-09-07 04:50:00,57.0,55.6,29.43,NNE,17,0.0,0.0,95,0.00,,SKC,0.00,VWS V14.01,2013-09-07 08:50:00,
2013-09-07 04:55:00,57.1,55.7,29.43,NNE,17,0.0,0.0,95,0.00,,SKC,0.00,VWS V14.01,2013-09-07 08:55:00,
2013-09-07 05:00:00,57.2,55.8,29.43,NNE,17,0.0,0.0,95,0.00,,SKC,0.00,VWS V14.01,2013-09-07 09:00:00,
2013-09-07 05:05:00,57.2,55.8,29.43,NNE,17,0.0,0.0,95,0.00,,SKC,0.00,VWS V14.01,2013-09-07 09:05:00,
2013-09-07 05:10:00,57.1,55.7,29.43,NNE,17,0.0,0.0,95,0.00,,SKC,0.00,VWS V14.01,2013-09-07 09:10:00,
2013-09-07 05:15:00,57.1,55.7,29.43,NNE,17,0.0,0.0,95,0.00,,SKC,0.00,VWS V14.01,2013-09-07 09:15:00,
2013-09-07 05:20:00,57.0,55.6,29.43,NNE,17,0.0,0.0,95,0.00,,SKC,0.00,VWS V14.01,2013-09-07 09:20:00,
2013-09-07 05:25:00,56.9,55.5,29.43,NNE,17,0.0,0.0,95,0.00,,SKC,0.00,VWS V14.01,2013-09-07 09:25:00,
2013-09-07 05:30:00,56.9,55.5,29.43,NNE,17,0.0,0.0,95,0.00,,SKC,0.00,VWS V14.01,2013-09-07 09:30:00,
2013-09-07 05:35:00,56.8,55.4,29.43,NNE,17,0.0,0.0,95,0.00,,SKC,0.00,VWS V14.01,2013-09-07 09:35:00,
2013-09-07 05:40:00,56.8,55.4,29.43,NNE,17,0.0,0.0,95,0.00,,SKC,0.00,VWS V14.01,2013-09-07 09:40:00,
2013-09-07 05:45:00,56.7,55.3,29.43,NNE,17,0.0,0.0,95,0.00,,SKC,0.00,VWS V14.01,2013-09-07 09:45:00,
2013-09-07 05:50:00,56.7,55.3,29.43,NNE,17,0.0,0.0,95,0.00,,SKC,0.00,VWS V14.01,2013-09-07 09:50:00,
2013-09-07 05:55:00,56.7,55.3,29.43,NNE,17,0.0,0.0,95,0.00,,SKC,0.00,VWS V14.01,2013-09-07 09:55:00,
2013-09-07 06:00:00,56.7,55.3,29.43,NNE,17,0.0,0.0,95,0.00,,SKC,0.00,VWS V14.01,2013-09-07 10:00:00,
2013-09-07 06:05:00,56.7,55.3,29.43,NNE,17,0.0,0.0,95,0.00,,SKC,0.00,VWS V14.01,2013-09-07 10:05:00,
2013-09-07 06:10:00,56.6,55.2,29.43,NNE,17,0.0,0.0,95,0.00,,SKC,0.00,VWS V14.01,2013-09-07 10:10:00,
2013-09-07 06:15:00,56.5,55.1,29.43,NNE,17,0.0,0.0,95,0.00,,SKC,0.00,VWS V14.01,2013-09-07 10:15:00,
2013-09-07 06:20:00,56.5,55.1,29.43,NNE,17,0.0,0.0,95,0.00,,SKC,0.00,VWS V14.01,2013-09-07 10:20:00,
2013-09-07 06:25:00,56.4,55.0,29.43,NNE,17,0.0,0.0,95,0.00,,SKC,0.00,VWS V14.01,2013-09-07 10:25:00,
2013-09-07 06:30:00,56.3,54.9,29.43,NNE,17,0.0,0.0,95,0.00,,SKC,0.00,VWS V14.01,2013-09-07 10:30:00,
2013-09-07 06:35:00,56.2,54.8,29.43,NNE,17,0.0,0.0,95,0.00,,SKC,0.00,VWS V14.01,2013-09-07 10:35:00,
2013-09-07 06:40:00,56.2,54.8,29.43,NNE,17,0.0,0.0,95,0.00,,SKC,0.00,VWS V14.01,2013-09-07 10:40:00,
2013-09-07 06:45:00,56.2,54.8,29.43,NNE,17,0.0,0.0,95,0.00,,SKC,0.00,VWS V14.01,2013-09-07 10:45:00,
2013-09-07 06:50:00,56.2,54.8,29.43,NNE,17,0.0,0.0,95,0.00,,SKC,0.00,VWS V14.01,2013-09-07 10:50:00,
2013-09-07 06:55:00,56.2,54.8,29.43,NNE,17,0.0,0.0,95,0.00,,SKC,0.00,VWS V14.01,2013-09-07 10:55:00,
2013-09-07 07:00:00,56.2,54.8,29.43,NNE,17,0.0,0.0,95,0.00,,SKC,0.00,VWS V14.01,2013-09-07 11:00:00,
2013-09-07 07:05:00,56.1,54.7,29.43,NNE,17,0.0,0.0,95,0.00,,SKC,0.00,VWS V14.01,2013-09-07 11:05:00,
2013-09-07 07:10:00,56.2,54.8,29.43,NNE,17,0.0,0.0,95,0.00,,SKC,0.00,VWS V14.01,2013-09-07 11:10:00,
2013-09-07 07:15:00,56.2,54.8,29.43,NNE,17,0.0,0.0,95,0.00,,SKC,0.00,VWS V14.01,2013-09-07 11:15:00,
2013-09-07 07:20:00,56.2,54.8,29.43,NNE,17,0.0,0.0,95,0.00,,SKC,0.00,VWS V14.01,2013-09-07 11:20:00,
2013-09-07 07:25:00,56.2,54.8,29.43,NNE,17,0.0,0.0,95,0.00,,SKC,0.00,VWS V14.01,2013-09-07 11:25:00,
2013-09-07 07:30:00,56.2,54.8,29.43,NNE,17,0.0,0.0,95,0.00,,SKC,0.00,VWS V14.01,2013-09-07 11:30:00,
2013-09-07 07:35:00,56.1,54.7,29.43,NNE,17,0.0,0.0,95,0.00,,SKC,0.00,VWS V14.01,2013-09-07 11:35:00,
2013-09-07 07:40:00,56.1,54.7,29.43,NNE,17,0.0,0.0,95,0.00,,SKC,0.00,VWS V14.01,2013-09-07 11:40:00,
2013-09-07 07:45:00,56.0,54.6,29.43,NNE,17,0.0,0.0,95,0.00,,SKC,0.00,VWS V14.01,2013-09-07 11:45:00,
2013-09-07 07:50:00,56.1,54.7,29.43,NNE,17,0.0,0.0,95,0.00,,SKC,0.00,VWS V14.01,2013-09-07 11:50:00,
2013-09-07 07:55:00,56.2,54.8,29.43,NNE,17,0.0,0.0,95,0.00,,SKC,0.00,VWS V14.01,2013-09-07 11:55:00,
2013-09-07 08:00:00,56.3,54.9,29.43,NNE,17,1.0,1.0,95,0.00,,SKC,0.00,VWS V14.01,2013-09-07 12:00:00,
2013-09-07 08:05:00,56.4,55.0,29.43,NNE,17,0.0,1.0,95,0.00,,SKC,0.00,VWS V14.01,2013-09-07 12:05:00,
2013-09-07 08:10:00,56.5,55.1,29.43,NNE,17,0.0,1.0,95,0.00,,SKC,0.00,VWS V14.01,2013-09-07 12:10:00,
2013-09-07 08:15:00,56.6,55.2,29.43,NNE,17,0.0,0.0,95,0.00,,SKC,0.00,VWS V14.01,2013-09-07 12:15:00,
2013-09-07 08:20:00,56.8,55.4,29.43,NNE,17,0.0,0.0,95,0.00,,SKC,0.00,VWS V14.01,2013-09-07 12:20:00,
2013-09-07 08:25:00,56.9,55.5,29.43,NNE,17,0.0,0.0,95,0.00,,SKC,0.00,VWS V14.01,2013-09-07 12:25:00,
2013-09-07 08:30:00,57.2,56.1,29.43,NNE,17,0.0,0.0,96,0.00,,SKC,0.00,VWS V14.01,2013-09-07 12:30:00,
2013-09-07 08:35:00,57.3,56.2,29.43,NNE,17,0.0,0.0,96,0.00,,SKC,0.00,VWS V14.01,2013-09-07 12:35:00,
2013-09-07 08:40:00,57.3,56.2,29.43,NNE,17,0.0,0.0,96,0.00,,SKC,0.00,VWS V14.01,2013-09-07 12:40:00,
2013-09-07 08:45:00,57.3,56.2,29.43,NNE,17,0.0,0.0,96,0.00,,SKC,0.00,VWS V14.01,2013-09-07 12:45:00,
2013-09-07 08:50:00,57.3,56.2,29.43,NNE,17,0.0,0.0,96,0.00,,SKC,0.00,VWS V14.01,2013-09-07 12:50:00,
2013-09-07 08:55:00,57.4,56.3,29.43,NNE,17,0.0,0.0,96,0.00,,SKC,0.00,VWS V14.01,2013-09-07 12:55:00,
2013-09-07 09:00:00,57.6,56.2,29.43,NNE,17,0.0,0.0,95,0.00,,SKC,0.00,VWS V14.01,2013-09-07 13:00:00,
2013-09-07 09:05:00,58.0,56.9,29.43,NNE,17,0.0,0.0,96,0.00,,SKC,0.00,VWS V14.01,2013-09-07 13:05:00,
2013-09-07 09:10:00,58.1,57.0,29.43,NNE,17,0.0,1.0,96,0.00,,SKC,0.00,VWS V14.01,2013-09-07 13:10:00,
2013-09-07 09:15:00,57.8,56.7,29.43,NNE,17,0.0,0.0,96,0.00,,SKC,0.00,VWS V14.01,2013-09-07 13:15:00,
2013-09-07 09:20:00,57.9,56.8,29.43,NNE,17,0.0,0.0,96,0.00,,SKC,0.00,VWS V14.01,2013-09-07 13:20:00,
2013-09-07 09:25:00,58.0,56.9,29.43,NNE,17,0.0,0.0,96,0.00,,SKC,0.00,VWS V14.01,2013-09-07 13:25:00,
2013-09-07 09:30:00,58.2,57.1,29.43,NNE,17,0.0,0.0,96,0.00,,SKC,0.00,VWS V14.01,2013-09-07 13:30:00,
2013-09-07 09:35:00,58.3,57.2,29.43,NNE,17,0.0,0.0,96,0.00,,SKC,0.00,VWS V14.01,2013-09-07 13:35:00,
2013-09-07 09:40:00,58.7,57.6,29.43,NNE,17,0.0,0.0,96,0.00,,SKC,0.00,VWS V14.01,2013-09-07 13:40:00,
2013-09-07 09:45:00,59.0,57.9,29.43,NNE,17,0.0,0.0,96,0.00,,SKC,0.00,VWS V14.01,2013-09-07 13:45:00,
2013-09-07 09:50:00,59.1,58.0,29.43,NNE,17,0.0,0.0,96,0.00,,SKC,0.00,VWS V14.01,2013-09-07 13:50:00,
2013-09-07 09:55:00,59.3,58.2,29.43,NNE,17,0.0,0.0,96,0.00,,SKC,0.00,VWS V14.01,2013-09-07 13:55:00,
2013-09-07 10:00:00,59.7,58.6,29.43,NNE,17,0.0,0.0,96,0.00,,SKC,0.00,VWS V14.01,2013-09-07 14:00:00,
2013-09-07 10:05:00,59.9,58.8,29.43,WNW,298,0.0,0.0,96,0.00,,SKC,0.00,VWS V14.01,2013-09-07 14:05:00,
2013-09-07 10:10:00,60.3,59.2,29.43,WNW,298,0.0,0.0,96,0.00,,SKC,0.00,VWS V14.01,2013-09-07 14:10:00,
2013-09-07 10:14:00,60.3,59.2,29.43,WNW,299,1.0,1.0,96,0.00,,SKC,0.00,VWS V14.01,2013-09-07 14:14:00,
2013-09-07 10:19:00,60.2,59.1,29.43,WNW,299,0.0,0.0,96,0.00,,SKC,0.00,VWS V14.01,2013-09-07 14:19:00,
2013-09-07 10:24:00,60.4,59.3,29.43,WNW,299,0.0,0.0,96,0.00,,SKC,0.00,VWS V14.01,2013-09-07 14:24:00,
2013-09-07 10:29:00,60.7,59.6,29.43,WNW,302,2.0,2.0,96,0.00,,SKC,0.00,VWS V14.01,2013-09-07 14:29:00,
2013-09-07 10:34:00,61.2,60.0,29.43,NW,305,2.0,2.0,96,0.00,,SKC,0.00,VWS V14.01,2013-09-07 14:34:00,
2013-09-07 10:39:00,62.0,60.8,29.43,NW,304,0.0,0.0,96,0.00,,SKC,0.00,VWS V14.01,2013-09-07 14:39:00,
2013-09-07 10:44:00,62.8,61.7,29.43,NW,311,0.0,0.0,96,0.00,,SKC,0.00,VWS V14.01,2013-09-07 14:44:00,
2013-09-07 10:49:00,63.8,62.6,29.43,NW,311,0.0,0.0,96,0.00,,SKC,0.00,VWS V14.01,2013-09-07 14:49:00,
2013-09-07 10:54:00,64.8,63.3,29.43,NW,311,1.0,1.0,95,0.00,,SKC,0.00,VWS V14.01,2013-09-07 14:54:00,
2013-09-07 10:59:00,65.9,63.8,29.43,NW,311,0.0,1.0,93,0.00,,SKC,0.00,VWS V14.01,2013-09-07 14:59:00,
2013-09-07 11:04:00,66.9,63.2,29.43,NW,311,0.0,0.0,88,0.00,,SKC,0.00,VWS V14.01,2013-09-07 15:04:00,
2013-09-07 11:09:00,68.2,63.5,29.43,NW,311,1.0,1.0,85,0.00,,SKC,0.00,VWS V14.01,2013-09-07 15:09:00,
2013-09-07 11:14:00,69.2,63.5,29.43,NW,313,3.0,3.0,82,0.00,,SKC,0.00,VWS V14.01,2013-09-07 15:14:00,
2013-09-07 11:19:00,69.8,63.7,29.43,NW,313,0.0,0.0,81,0.00,,SKC,0.00,VWS V14.01,2013-09-07 15:19:00,
2013-09-07 11:24:00,70.8,63.6,29.43,NW,313,2.0,3.0,78,0.00,,SKC,0.00,VWS V14.01,2013-09-07 15:24:00,
2013-09-07 11:29:00,71.3,63.3,29.43,NW,313,3.0,3.0,76,0.00,,SKC,0.00,VWS V14.01,2013-09-07 15:29:00,
2013-09-07 11:34:00,71.9,64.3,29.43,NW,313,0.0,0.0,77,0.00,,SKC,0.00,VWS V14.01,2013-09-07 15:34:00,
2013-09-07 11:39:00,72.5,63.4,29.43,NW,313,3.0,3.0,73,0.00,,SKC,0.00,VWS V14.01,2013-09-07 15:39:00,
2013-09-07 11:44:00,72.6,62.3,29.43,NW,322,0.0,3.0,70,0.00,,SKC,0.00,VWS V14.01,2013-09-07 15:44:00,
2013-09-07 11:49:00,73.1,62.7,29.43,NW,322,0.0,2.0,70,0.00,,SKC,0.00,VWS V14.01,2013-09-07 15:49:00,
2013-09-07 11:54:00,73.6,62.4,29.43,NW,322,0.0,0.0,68,0.00,,SKC,0.00,VWS V14.01,2013-09-07 15:54:00,
2013-09-07 11:59:00,74.1,62.9,29.43,NW,322,1.0,1.0,68,0.00,,SKC,0.00,VWS V14.01,2013-09-07 15:59:00,
2013-09-07 12:04:00,74.3,62.6,29.43,NNW,341,1.0,1.0,67,0.00,,SKC,0.00,VWS V14.01,2013-09-07 16:04:00,
2013-09-07 12:09:00,73.7,61.7,29.43,North,355,2.0,3.0,66,0.00,,SKC,0.00,VWS V14.01,2013-09-07 16:09:00,
2013-09-07 12:14:00,73.5,61.5,29.43,North,360,3.0,3.0,66,0.00,,SKC,0.00,VWS V14.01,2013-09-07 16:14:00,
2013-09-07 12:19:00,73.9,63.1,29.43,North,360,0.0,1.0,69,0.00,,SKC,0.00,VWS V14.01,2013-09-07 16:19:00,
2013-09-07 12:24:00,74.9,61.9,29.43,North,360,0.0,3.0,64,0.00,,SKC,0.00,VWS V14.01,2013-09-07 16:24:00,
2013-09-07 12:29:00,75.3,63.2,29.43,North,355,1.0,3.0,66,0.00,,SKC,0.00,VWS V14.01,2013-09-07 16:29:00,
2013-09-07 12:34:00,76.0,63.4,29.43,North,350,0.0,1.0,65,0.00,,SKC,0.00,VWS V14.01,2013-09-07 16:34:00,
2013-09-07 12:39:00,76.8,63.7,29.43,NNE,14,0.0,1.0,64,0.00,,SKC,0.00,VWS V14.01,2013-09-07 16:39:00,
2013-09-07 12:44:00,76.8,62.3,29.43,ESE,107,1.0,1.0,61,0.00,,SKC,0.00,VWS V14.01,2013-09-07 16:44:00,
2013-09-07 12:49:00,76.7,62.2,29.43,ESE,108,1.0,1.0,61,0.00,,SKC,0.00,VWS V14.01,2013-09-07 16:49:00,
2013-09-07 12:54:00,77.1,62.2,29.43,ESE,109,1.0,2.0,60,0.00,,SKC,0.00,VWS V14.01,2013-09-07 16:54:00,
2013-09-07 12:59:00,78.0,62.5,29.43,ESE,109,0.0,1.0,59,0.00,,SKC,0.00,VWS V14.01,2013-09-07 16:59:00,
2013-09-07 13:04:00,77.9,62.4,29.43,ESE,109,1.0,1.0,59,0.00,,SKC,0.00,VWS V14.01,2013-09-07 17:04:00,
2013-09-07 13:09:00,77.6,63.6,29.43,East,82,0.0,2.0,62,0.00,,SKC,0.00,VWS V14.01,2013-09-07 17:09:00,
2013-09-07 13:14:00,76.6,62.2,29.43,East,80,1.0,2.0,61,0.00,,SKC,0.00,VWS V14.01,2013-09-07 17:14:00,
2013-09-07 13:19:00,76.2,62.7,29.43,East,80,2.0,2.0,63,0.00,,SKC,0.00,VWS V14.01,2013-09-07 17:19:00,
2013-09-07 13:24:00,76.6,63.1,29.43,East,80,0.0,0.0,63,0.00,,SKC,0.00,VWS V14.01,2013-09-07 17:24:00,
2013-09-07 13:29:00,77.4,63.8,29.43,East,80,1.0,1.0,63,0.00,,SKC,0.00,VWS V14.01,2013-09-07 17:29:00,
2013-09-07 13:34:00,77.6,63.1,29.43,SSE,159,2.0,4.0,61,0.00,,SKC,0.00,VWS V14.01,2013-09-07 17:34:00,
2013-09-07 13:39:00,76.9,62.9,29.43,NE,52,1.0,2.0,62,0.00,,SKC,0.00,VWS V14.01,2013-09-07 17:39:00,
2013-09-07 13:44:00,76.6,62.6,29.43,NE,35,1.0,1.0,62,0.00,,SKC,0.00,VWS V14.01,2013-09-07 17:44:00,
2013-09-07 13:49:00,76.9,62.9,29.43,NE,35,2.0,2.0,62,0.00,,SKC,0.00,VWS V14.01,2013-09-07 17:49:00,
2013-09-07 13:54:00,77.8,63.3,29.43,NE,35,1.0,2.0,61,0.00,,SKC,0.00,VWS V14.01,2013-09-07 17:54:00,
2013-09-07 13:59:00,77.9,63.4,29.43,NNW,346,1.0,1.0,61,0.00,,SKC,0.00,VWS V14.01,2013-09-07 17:59:00,
2013-09-07 14:04:00,78.4,64.8,29.43,NNW,345,2.0,4.0,63,0.00,,SKC,0.00,VWS V14.01,2013-09-07 18:04:00,
2013-09-07 14:09:00,79.3,63.3,29.43,NNW,346,0.0,0.0,58,0.00,,SKC,0.00,VWS V14.01,2013-09-07 18:09:00,
2013-09-07 14:14:00,80.3,63.7,29.43,NNW,345,1.0,3.0,57,0.00,,SKC,0.00,VWS V14.01,2013-09-07 18:14:00,
2013-09-07 14:19:00,80.8,64.7,29.43,NNW,346,1.0,1.0,58,0.00,,SKC,0.00,VWS V14.01,2013-09-07 18:19:00,
2013-09-07 14:24:00,80.7,64.6,29.43,North,9,3.0,4.0,58,0.00,,SKC,0.00,VWS V14.01,2013-09-07 18:24:00,
2013-09-07 14:29:00,79.8,63.7,29.43,North,360,0.0,0.0,58,0.00,,SKC,0.00,VWS V14.01,2013-09-07 18:29:00,
2013-09-07 14:34:00,79.5,63.4,29.43,North,360,0.0,3.0,58,0.00,,SKC,0.00,VWS V14.01,2013-09-07 18:34:00,
2013-09-07 14:39:00,79.8,64.2,29.43,North,360,1.0,1.0,59,0.00,,SKC,0.00,VWS V14.01,2013-09-07 18:39:00,
2013-09-07 14:44:00,79.7,64.6,29.43,ENE,61,2.0,2.0,60,0.00,,SKC,0.00,VWS V14.01,2013-09-07 18:44:00,
2013-09-07 14:49:00,79.8,64.2,29.43,ENE,61,0.0,2.0,59,0.00,,SKC,0.00,VWS V14.01,2013-09-07 18:49:00,
2013-09-07 14:54:00,79.7,65.1,29.43,ENE,61,1.0,5.0,61,0.00,,SKC,0.00,VWS V14.01,2013-09-07 18:54:00,
2013-09-07 14:59:00,78.9,64.3,29.43,ENE,62,0.0,0.0,61,0.00,,SKC,0.00,VWS V14.01,2013-09-07 18:59:00,
2013-09-07 15:04:00,78.3,64.2,29.43,ENE,63,0.0,1.0,62,0.00,,SKC,0.00,VWS V14.01,2013-09-07 19:04:00,
2013-09-07 15:09:00,77.5,63.9,29.43,ENE,63,0.0,2.0,63,0.00,,SKC,0.00,VWS V14.01,2013-09-07 19:09:00,
2013-09-07 15:14:00,77.1,63.5,29.43,ENE,61,0.0,0.0,63,0.00,,SKC,0.00,VWS V14.01,2013-09-07 19:14:00,
2013-09-07 15:19:00,77.7,64.1,23.39,ENE,60,0.0,0.0,63,0.00,,SKC,0.00,VWS V14.01,2013-09-07 19:19:00,
2013-09-07 15:24:00,78.6,65.9,23.39,ENE,60,0.0,2.0,65,0.00,,SKC,0.00,VWS V14.01,2013-09-07 19:24:00,
2013-09-07 15:29:00,78.7,64.6,23.39,ENE,60,3.0,3.0,62,0.00,,SKC,0.00,VWS V14.01,2013-09-07 19:29:00,
2013-09-07 15:34:00,78.7,64.6,23.39,ENE,60,1.0,2.0,62,0.00,,SKC,0.00,VWS V14.01,2013-09-07 19:34:00,
2013-09-07 15:39:00,78.7,64.1,23.39,ENE,60,0.0,0.0,61,0.00,,SKC,0.00,VWS V14.01,2013-09-07 19:39:00,
2013-09-07 15:44:00,79.4,63.8,23.39,ENE,59,0.0,0.0,59,0.00,,SKC,0.00,VWS V14.01,2013-09-07 19:44:00,
2013-09-07 15:49:00,79.7,64.6,23.39,NE,49,1.0,1.0,60,0.00,,SKC,0.00,VWS V14.01,2013-09-07 19:49:00,
2013-09-07 15:54:00,79.2,64.1,23.39,NNE,18,4.0,4.0,60,0.00,,SKC,0.00,VWS V14.01,2013-09-07 19:54:00,
2013-09-07 15:59:00,78.6,64.0,23.39,North,5,1.0,1.0,61,0.00,,SKC,0.00,VWS V14.01,2013-09-07 19:59:00,
2013-09-07 16:04:00,78.3,63.8,23.39,North,5,1.0,3.0,61,0.00,,SKC,0.00,VWS V14.01,2013-09-07 20:04:00,
2013-09-07 16:08:00,77.9,64.3,23.39,North,5,0.0,0.0,63,0.00,,SKC,0.00,VWS V14.01,2013-09-07 20:08:00,
2013-09-07 16:13:00,77.6,65.8,23.39,North,5,1.0,2.0,67,0.00,,SKC,0.00,VWS V14.01,2013-09-07 20:13:00,
2013-09-07 16:18:00,77.3,64.6,23.39,North,5,0.0,0.0,65,0.00,,SKC,0.00,VWS V14.01,2013-09-07 20:18:00,
2013-09-07 16:23:00,77.3,64.2,23.39,North,5,1.0,1.0,64,0.00,,SKC,0.00,VWS V14.01,2013-09-07 20:23:00,
2013-09-07 16:28:00,78.1,64.5,23.39,North,5,2.0,2.0,63,0.00,,SKC,0.00,VWS V14.01,2013-09-07 20:28:00,
2013-09-07 16:33:00,78.9,64.8,23.39,North,5,2.0,4.0,62,0.00,,SKC,0.00,VWS V14.01,2013-09-07 20:33:00,
2013-09-07 16:38:00,79.0,64.9,23.39,North,5,4.0,4.0,62,0.00,,SKC,0.00,VWS V14.01,2013-09-07 20:38:00,
2013-09-07 16:43:00,78.9,63.8,23.39,North,5,3.0,3.0,60,0.00,,SKC,0.00,VWS V14.01,2013-09-07 20:43:00,
2013-09-07 16:48:00,78.9,64.3,23.39,North,5,2.0,3.0,61,0.00,,SKC,0.00,VWS V14.01,2013-09-07 20:48:00,
2013-09-07 16:53:00,78.5,64.0,23.39,NNE,18,1.0,3.0,61,0.00,,SKC,0.00,VWS V14.01,2013-09-07 20:53:00,
2013-09-07 16:58:00,78.0,64.4,23.39,NNE,18,0.0,0.0,63,0.00,,SKC,0.00,VWS V14.01,2013-09-07 20:58:00,
2013-09-07 17:03:00,78.7,65.1,23.39,NNE,18,1.0,1.0,63,0.00,,SKC,0.00,VWS V14.01,2013-09-07 21:03:00,
2013-09-07 17:08:00,78.9,65.2,23.39,North,5,4.0,5.0,63,0.00,,SKC,0.00,VWS V14.01,2013-09-07 21:08:00,
2013-09-07 17:13:00,78.8,64.7,23.39,North,10,4.0,5.0,62,0.00,,SKC,0.00,VWS V14.01,2013-09-07 21:13:00,
2013-09-07 17:18:00,78.6,65.0,23.39,North,9,0.0,3.0,63,0.00,,SKC,0.00,VWS V14.01,2013-09-07 21:18:00,
2013-09-07 17:23:00,78.7,64.6,23.39,NNE,15,3.0,4.0,62,0.00,,SKC,0.00,VWS V14.01,2013-09-07 21:23:00,
2013-09-07 17:28:00,78.4,64.8,23.39,NNE,16,2.0,3.0,63,0.00,,SKC,0.00,VWS V14.01,2013-09-07 21:28:00,
2013-09-07 17:33:00,78.3,64.7,23.39,NNE,16,3.0,5.0,63,0.00,,SKC,0.00,VWS V14.01,2013-09-07 21:33:00,
2013-09-07 17:38:00,78.6,65.4,23.39,NNE,14,1.0,2.0,64,0.00,,SKC,0.00,VWS V14.01,2013-09-07 21:38:00,
2013-09-07 17:43:00,78.7,65.1,23.39,North,5,2.0,5.0,63,0.00,,SKC,0.00,VWS V14.01,2013-09-07 21:43:00,
2013-09-07 17:48:00,78.2,64.6,23.39,North,5,1.0,1.0,63,0.00,,SKC,0.00,VWS V14.01,2013-09-07 21:48:00,
2013-09-07 17:53:00,78.3,65.1,23.39,North,5,3.0,3.0,64,0.00,,SKC,0.00,VWS V14.01,2013-09-07 21:53:00,
2013-09-07 17:58:00,77.8,64.2,23.39,North,360,1.0,5.0,63,0.00,,SKC,0.00,VWS V14.01,2013-09-07 21:58:00,
2013-09-07 18:03:00,77.6,65.8,23.39,North,5,0.0,1.0,67,0.00,,SKC,0.00,VWS V14.01,2013-09-07 22:03:00,
2013-09-07 18:08:00,77.7,65.0,23.39,North,5,0.0,3.0,65,0.00,,SKC,0.00,VWS V14.01,2013-09-07 22:08:00,
2013-09-07 18:13:00,77.5,66.1,23.39,North,5,0.0,0.0,68,0.00,,SKC,0.00,VWS V14.01,2013-09-07 22:13:00,
2013-09-07 18:18:00,77.1,65.3,23.39,North,5,0.0,0.0,67,0.00,,SKC,0.00,VWS V14.01,2013-09-07 22:18:00,
2013-09-07 18:23:00,77.0,65.6,23.39,North,5,1.0,1.0,68,0.00,,SKC,0.00,VWS V14.01,2013-09-07 22:23:00,
2013-09-07 18:28:00,76.9,64.7,23.39,North,5,0.0,0.0,66,0.00,,SKC,0.00,VWS V14.01,2013-09-07 22:28:00,
2013-09-07 18:33:00,76.9,65.5,23.39,North,360,0.0,0.0,68,0.00,,SKC,0.00,VWS V14.01,2013-09-07 22:33:00,
2013-09-07 18:38:00,76.6,65.3,23.39,North,5,0.0,0.0,68,0.00,,SKC,0.00,VWS V14.01,2013-09-07 22:38:00,
2013-09-07 18:43:00,76.4,64.6,17.97,North,360,0.0,0.0,67,0.00,,SKC,0.00,VWS V14.01,2013-09-07 22:43:00,
2013-09-07 18:48:00,76.1,64.8,17.97,North,5,1.0,2.0,68,0.00,,SKC,0.00,VWS V14.01,2013-09-07 22:48:00,
2013-09-07 18:53:00,75.5,65.8,17.97,North,5,1.0,1.0,72,0.00,,SKC,0.00,VWS V14.01,2013-09-07 22:53:00,
2013-09-07 18:58:00,75.0,65.8,17.97,North,5,0.0,0.0,73,0.00,,SKC,0.00,VWS V14.01,2013-09-07 22:58:00,
2013-09-07 19:03:00,74.4,66.0,17.97,North,360,0.0,0.0,75,0.00,,SKC,0.00,VWS V14.01,2013-09-07 23:03:00,
2013-09-07 19:08:00,73.9,65.5,17.97,North,5,0.0,0.0,75,0.00,,SKC,0.00,VWS V14.01,2013-09-07 23:08:00,
2013-09-07 19:13:00,73.4,65.4,17.97,North,360,0.0,0.0,76,0.00,,SKC,0.00,VWS V14.01,2013-09-07 23:13:00,
2013-09-07 19:18:00,72.9,65.3,17.97,North,5,0.0,0.0,77,0.00,,SKC,0.00,VWS V14.01,2013-09-07 23:18:00,
2013-09-07 19:23:00,72.4,65.2,17.97,North,360,0.0,1.0,78,0.00,,SKC,0.00,VWS V14.01,2013-09-07 23:23:00,
2013-09-07 19:28:00,72.0,65.1,17.97,North,5,0.0,0.0,79,0.00,,SKC,0.00,VWS V14.01,2013-09-07 23:28:00,
2013-09-07 19:33:00,71.7,64.8,17.97,North,5,0.0,0.0,79,0.00,,SKC,0.00,VWS V14.01,2013-09-07 23:33:00,
2013-09-07 19:38:00,71.5,65.0,17.97,North,5,0.0,0.0,80,0.00,,SKC,0.00,VWS V14.01,2013-09-07 23:38:00,
2013-09-07 19:43:00,71.3,65.2,17.97,North,5,0.0,0.0,81,0.00,,SKC,0.00,VWS V14.01,2013-09-07 23:43:00,
2013-09-07 19:48:00,71.0,65.2,17.97,North,360,0.0,0.0,82,0.00,,SKC,0.00,VWS V14.01,2013-09-07 23:48:00,
2013-09-07 19:53:00,70.8,65.0,17.97,North,360,0.0,0.0,82,0.00,,SKC,0.00,VWS V14.01,2013-09-07 23:53:00,
2013-09-07 19:58:00,70.4,65.0,17.97,North,360,0.0,0.0,83,0.00,,SKC,0.00,VWS V14.01,2013-09-07 23:58:00,
2013-09-07 20:03:00,70.2,64.8,32.49,North,5,0.0,0.0,83,0.00,,SKC,0.00,VWS V14.01,2013-09-08 00:03:00,
2013-09-07 20:08:00,69.8,64.8,32.49,North,5,0.0,0.0,84,0.00,,SKC,0.00,VWS V14.01,2013-09-08 00:08:00,
2013-09-07 20:13:00,69.4,64.7,32.49,North,5,0.0,0.0,85,0.00,,SKC,0.00,VWS V14.01,2013-09-08 00:13:00,
2013-09-07 20:18:00,68.9,64.2,30.16,North,5,0.0,0.0,85,0.00,,SKC,0.00,VWS V14.01,2013-09-08 00:18:00,
2013-09-07 20:23:00,68.6,63.9,30.16,North,360,0.0,0.0,85,0.00,,SKC,0.00,VWS V14.01,2013-09-08 00:23:00,
2013-09-07 20:28:00,68.1,63.8,30.16,North,360,0.0,0.0,86,0.00,,SKC,0.00,VWS V14.01,2013-09-08 00:28:00,
2013-09-07 20:33:00,67.7,63.7,30.16,North,5,0.0,0.0,87,0.00,,SKC,0.00,VWS V14.01,2013-09-08 00:33:00,
2013-09-07 20:38:00,67.4,63.4,30.16,North,5,0.0,0.0,87,0.00,,SKC,0.00,VWS V14.01,2013-09-08 00:38:00,
2013-09-07 20:43:00,67.1,63.1,30.16,North,5,0.0,0.0,87,0.00,,SKC,0.00,VWS V14.01,2013-09-08 00:43:00,
2013-09-07 20:48:00,66.8,63.1,30.16,North,360,0.0,0.0,88,0.00,,SKC,0.00,VWS V14.01,2013-09-08 00:48:00,
2013-09-07 20:53:00,66.6,62.9,30.16,North,360,0.0,0.0,88,0.00,,SKC,0.00,VWS V14.01,2013-09-08 00:53:00,
2013-09-07 20:58:00,66.3,63.0,30.16,North,5,0.0,0.0,89,0.00,,SKC,0.00,VWS V14.01,2013-09-08 00:58:00,
2013-09-07 21:03:00,66.0,62.7,30.16,North,360,0.0,0.0,89,0.00,,SKC,0.00,VWS V14.01,2013-09-08 01:03:00,
2013-09-07 21:08:00,65.7,62.7,26.95,North,360,0.0,0.0,90,0.00,,SKC,0.00,VWS V14.01,2013-09-08 01:08:00,
2013-09-07 21:13:00,65.5,62.5,26.95,North,360,0.0,0.0,90,0.00,,SKC,0.00,VWS V14.01,2013-09-08 01:13:00,
2013-09-07 21:18:00,65.3,62.3,26.95,North,5,0.0,0.0,90,0.00,,SKC,0.00,VWS V14.01,2013-09-08 01:18:00,
2013-09-07 21:23:00,65.1,62.1,26.95,North,360,0.0,0.0,90,0.00,,SKC,0.00,VWS V14.01,2013-09-08 01:23:00,
2013-09-07 21:28:00,64.9,61.9,26.95,North,5,0.0,0.0,90,0.00,,SKC,0.00,VWS V14.01,2013-09-08 01:28:00,
2013-09-07 21:33:00,64.7,61.7,26.95,North,5,0.0,0.0,90,0.00,,SKC,0.00,VWS V14.01,2013-09-08 01:33:00,
2013-09-07 21:38:00,64.5,61.8,26.95,North,5,0.0,0.0,91,0.00,,SKC,0.00,VWS V14.01,2013-09-08 01:38:00,
2013-09-07 21:43:00,64.5,61.8,26.95,North,5,0.0,0.0,91,0.00,,SKC,0.00,VWS V14.01,2013-09-08 01:43:00,
2013-09-07 21:48:00,64.3,61.6,26.95,North,5,1.0,1.0,91,0.00,,SKC,0.00,VWS V14.01,2013-09-08 01:48:00,
2013-09-07 21:52:00,64.1,61.4,26.95,North,360,0.0,0.0,91,0.00,,SKC,0.00,VWS V14.01,2013-09-08 01:52:00,
2013-09-07 21:57:00,63.9,61.2,26.95,North,5,0.0,0.0,91,0.00,,SKC,0.00,VWS V14.01,2013-09-08 01:57:00,
2013-09-07 22:02:00,63.8,61.1,26.95,North,5,0.0,0.0,91,0.00,,SKC,0.00,VWS V14.01,2013-09-08 02:02:00,
2013-09-07 22:07:00,63.6,61.2,26.95,North,5,0.0,0.0,92,0.00,,SKC,0.00,VWS V14.01,2013-09-08 02:07:00,
2013-09-07 22:12:00,63.6,61.2,26.95,North,360,0.0,0.0,92,0.00,,SKC,0.00,VWS V14.01,2013-09-08 02:12:00,
2013-09-07 22:17:00,63.5,61.1,26.95,North,5,1.0,1.0,92,0.00,,SKC,0.00,VWS V14.01,2013-09-08 02:17:00,
2013-09-07 22:22:00,63.4,61.0,26.95,North,360,0.0,0.0,92,0.00,,SKC,0.00,VWS V14.01,2013-09-08 02:22:00,
2013-09-07 22:27:00,63.2,60.8,26.95,North,5,0.0,0.0,92,0.00,,SKC,0.00,VWS V14.01,2013-09-08 02:27:00,
2013-09-07 22:32:00,63.1,60.7,26.95,North,360,0.0,0.0,92,0.00,,SKC,0.00,VWS V14.01,2013-09-08 02:32:00,
2013-09-07 22:37:00,63.0,60.6,26.95,North,5,0.0,0.0,92,0.00,,SKC,0.00,VWS V14.01,2013-09-08 02:37:00,
2013-09-07 22:42:00,62.9,60.5,26.95,North,5,0.0,0.0,92,0.00,,SKC,0.00,VWS V14.01,2013-09-08 02:42:00,
2013-09-07 22:47:00,62.8,60.5,26.95,North,5,0.0,0.0,92,0.00,,SKC,0.00,VWS V14.01,2013-09-08 02:47:00,
2013-09-07 22:52:00,62.7,60.3,26.95,North,360,0.0,0.0,92,0.00,,SKC,0.00,VWS V14.01,2013-09-08 02:52:00,
2013-09-07 22:57:00,62.6,60.2,26.95,North,5,0.0,1.0,92,0.00,,SKC,0.00,VWS V14.01,2013-09-08 02:57:00,
2013-09-07 23:02:00,62.4,60.0,26.95,North,5,0.0,0.0,92,0.00,,SKC,0.00,VWS V14.01,2013-09-08 03:02:00,
2013-09-07 23:07:00,62.3,60.0,26.95,North,5,0.0,0.0,92,0.00,,SKC,0.00,VWS V14.01,2013-09-08 03:07:00,
2013-09-07 23:12:00,62.2,59.8,26.95,North,5,0.0,0.0,92,0.00,,SKC,0.00,VWS V14.01,2013-09-08 03:12:00,
2013-09-07 23:17:00,62.0,59.7,26.95,North,5,0.0,0.0,92,0.00,,SKC,0.00,VWS V14.01,2013-09-08 03:17:00,
2013-09-07 23:22:00,61.9,59.5,32.00,North,5,1.0,1.0,92,0.00,,SKC,0.00,VWS V14.01,2013-09-08 03:22:00,
2013-09-07 23:27:00,62.0,59.7,32.00,North,360,0.0,0.0,92,0.00,,SKC,0.00,VWS V14.01,2013-09-08 03:27:00,
2013-09-07 23:32:00,62.1,59.8,32.00,North,5,0.0,1.0,92,0.00,,SKC,0.00,VWS V14.01,2013-09-08 03:32:00,
2013-09-07 23:37:00,62.2,59.8,32.00,North,360,0.0,0.0,92,0.00,,SKC,0.00,VWS V14.01,2013-09-08 03:37:00,
2013-09-07 23:42:00,62.2,59.5,32.00,North,5,0.0,0.0,91,0.00,,SKC,0.00,VWS V14.01,2013-09-08 03:42:00,
2013-09-07 23:47:00,62.2,59.8,32.00,North,5,0.0,0.0,92,0.00,,SKC,0.00,VWS V14.01,2013-09-08 03:47:00,
2013-09-07 23:52:00,62.0,59.3,32.00,North,360,0.0,0.0,91,0.00,,SKC,0.00,VWS V14.01,2013-09-08 03:52:00,
2013-09-07 23:57:00,61.8,59.2,32.00,North,5,0.0,0.0,91,0.00,,SKC,0.00,VWS V14.01,2013-09-08 03:57:00,